Time;durP1;ratioP1;P1;durP2;ratioP2;P2;SDS_P1;SDS_P2;PMS_P1;PMS_P2;Temp;Humidity;BMP_temperature;BMP_pressure;BME280_temperature;BME280_humidity;BME280_pressure;Samples;Min_cycle;Max_cycle;Signal;HPM_P1;HPM_P2
2020/12/26 00:02:16;;;;;;;5.68;4.00;;;5.30;82.00;;;;;;5012822;28;20033;-76
2020/12/26 00:04:42;;;;;;;6.55;4.10;;;5.40;82.10;;;;;;5042100;28;20445;-76
2020/12/26 00:07:08;;;;;;;5.85;4.22;;;5.40;82.10;;;;;;5046959;28;20086;-76
2020/12/26 00:09:34;;;;;;;6.82;3.97;;;5.40;82.10;;;;;;5044473;28;20457;-77
2020/12/26 00:11:59;;;;;;;4.50;3.38;;;5.40;82.10;;;;;;5049542;28;20029;-76
2020/12/26 00:14:28;;;;;;;4.95;3.65;;;5.40;82.10;;;;;;5048090;28;20029;-77
2020/12/26 00:16:55;;;;;;;5.40;3.75;;;5.30;82.00;;;;;;5051451;28;20033;-77
2020/12/26 00:19:21;;;;;;;4.78;3.33;;;5.30;82.00;;;;;;5030455;28;20026;-76
2020/12/26 00:21:47;;;;;;;4.65;3.45;;;5.30;82.00;;;;;;5037519;28;20026;-76
2020/12/26 00:24:12;;;;;;;5.00;3.15;;;5.30;82.10;;;;;;5027764;28;20030;-76
2020/12/26 00:26:38;;;;;;;5.25;3.70;;;5.30;82.00;;;;;;5033406;28;20029;-76
2020/12/26 00:29:04;;;;;;;5.05;3.40;;;5.30;82.00;;;;;;5045006;28;20029;-76
2020/12/26 00:31:30;;;;;;;5.47;3.65;;;5.30;82.00;;;;;;5025244;28;20030;-76
2020/12/26 00:33:55;;;;;;;6.28;4.03;;;5.30;82.00;;;;;;5014368;28;20029;-77
2020/12/26 00:36:21;;;;;;;5.35;3.83;;;5.30;82.00;;;;;;5050548;28;20116;-76
2020/12/26 00:38:47;;;;;;;5.30;3.60;;;5.30;82.10;;;;;;5034419;28;20052;-76
2020/12/26 00:41:14;;;;;;;5.68;3.38;;;5.30;82.10;;;;;;5030933;28;20065;-76
2020/12/26 00:43:40;;;;;;;5.93;3.53;;;5.30;82.10;;;;;;5044060;28;20052;-76
2020/12/26 00:46:06;;;;;;;6.05;4.13;;;5.30;82.00;;;;;;5047223;28;20111;-78
2020/12/26 00:48:31;;;;;;;6.30;3.92;;;5.30;82.10;;;;;;5034576;28;20466;-77
2020/12/26 00:50:57;;;;;;;4.43;3.35;;;5.30;82.10;;;;;;5013652;28;20484;-77
2020/12/26 00:53:23;;;;;;;5.20;3.65;;;5.30;82.10;;;;;;5045731;28;20416;-76
2020/12/26 00:55:49;;;;;;;4.45;3.40;;;5.30;82.00;;;;;;5009435;28;20039;-76
2020/12/26 00:58:17;;;;;;;5.00;3.85;;;5.30;82.10;;;;;;5049647;28;20079;-76
2020/12/26 01:00:43;;;;;;;5.22;3.58;;;5.30;82.10;;;;;;5046939;28;20021;-77
2020/12/26 01:03:28;;;;;;;6.97;4.13;;;5.30;82.00;;;;;;5052158;28;20059;-76
2020/12/26 01:05:54;;;;;;;4.90;3.50;;;5.30;82.00;;;;;;5017569;28;20431;-77
2020/12/26 01:08:20;;;;;;;5.78;3.80;;;5.30;82.00;;;;;;5031197;28;20071;-77
2020/12/26 01:10:46;;;;;;;8.05;4.18;;;5.30;82.00;;;;;;5045275;28;20037;-76
2020/12/26 01:13:12;;;;;;;5.10;3.85;;;5.30;82.00;;;;;;5046496;28;20033;-77
2020/12/26 01:15:37;;;;;;;5.10;3.60;;;5.30;82.00;;;;;;5016665;28;20388;-82
2020/12/26 01:18:03;;;;;;;5.22;3.92;;;5.30;82.00;;;;;;5033472;28;20033;-76
2020/12/26 01:20:29;;;;;;;5.38;3.80;;;5.30;82.10;;;;;;5048535;28;20458;-77
2020/12/26 01:22:55;;;;;;;5.10;3.90;;;5.30;82.10;;;;;;5032250;28;20030;-77
2020/12/26 01:25:21;;;;;;;7.20;3.80;;;5.30;82.10;;;;;;5024759;28;20457;-76
2020/12/26 01:27:46;;;;;;;6.00;3.90;;;5.30;82.10;;;;;;5043035;28;20472;-76
2020/12/26 01:30:12;;;;;;;5.85;3.60;;;5.30;82.10;;;;;;5047330;28;20422;-77
2020/12/26 01:32:39;;;;;;;5.13;3.70;;;5.30;82.10;;;;;;5051586;28;20033;-79
2020/12/26 01:35:04;;;;;;;6.40;3.50;;;5.30;82.70;;;;;;5045650;28;20052;-78
2020/12/26 01:37:30;;;;;;;5.18;3.70;;;5.30;82.10;;;;;;5037902;28;20397;-76
2020/12/26 01:39:56;;;;;;;5.85;3.67;;;5.30;82.10;;;;;;5030849;28;20049;-77
2020/12/26 01:42:22;;;;;;;5.50;3.90;;;5.30;82.10;;;;;;5050474;28;20043;-76
2020/12/26 01:44:47;;;;;;;5.90;3.88;;;5.30;82.10;;;;;;5025237;28;20029;-77
2020/12/26 01:47:15;;;;;;;4.30;3.53;;;5.30;82.10;;;;;;5034636;28;20108;-76
2020/12/26 01:49:42;;;;;;;4.85;3.78;;;5.30;82.10;;;;;;5038005;28;20123;-80
2020/12/26 01:52:14;;;;;;;4.82;3.35;;;5.30;82.10;;;;;;5031642;28;20021;-76
2020/12/26 01:54:40;;;;;;;4.80;3.83;;;5.30;82.10;;;;;;5033704;28;20029;-76
2020/12/26 01:57:08;;;;;;;4.90;3.88;;;5.30;82.70;;;;;;5048654;28;20116;-77
2020/12/26 01:59:34;;;;;;;5.60;3.65;;;5.30;82.10;;;;;;5050817;28;20126;-76
2020/12/26 02:02:06;;;;;;;4.47;3.53;;;5.30;82.10;;;;;;5044052;28;20039;-76
2020/12/26 02:04:32;;;;;;;4.70;3.55;;;5.30;82.10;;;;;;5045315;28;20044;-76
2020/12/26 02:06:59;;;;;;;5.05;3.63;;;5.30;82.10;;;;;;5044461;28;20304;-76
2020/12/26 02:09:26;;;;;;;5.20;3.75;;;5.30;82.10;;;;;;5050964;28;20099;-76
2020/12/26 02:11:52;;;;;;;4.72;3.20;;;5.30;82.10;;;;;;5044319;28;20114;-76
2020/12/26 02:14:18;;;;;;;5.43;3.55;;;5.30;82.10;;;;;;5048858;28;20455;-76
2020/12/26 02:16:45;;;;;;;5.55;3.97;;;5.30;82.10;;;;;;5050621;28;20029;-79
2020/12/26 02:19:12;;;;;;;5.82;3.85;;;5.30;82.10;;;;;;5045184;28;20030;-77
2020/12/26 02:21:39;;;;;;;4.43;3.38;;;5.30;82.00;;;;;;5045933;28;20025;-77
2020/12/26 02:24:05;;;;;;;5.75;4.10;;;5.30;82.10;;;;;;5044345;28;20076;-76
2020/12/26 02:26:31;;;;;;;4.47;3.60;;;5.30;82.10;;;;;;5015875;28;20029;-76
2020/12/26 02:28:57;;;;;;;6.53;4.03;;;5.40;82.20;;;;;;5013775;28;20075;-77
2020/12/26 02:31:23;;;;;;;4.97;3.75;;;5.30;82.10;;;;;;5024104;28;20041;-76
2020/12/26 02:33:49;;;;;;;5.10;3.65;;;5.30;82.00;;;;;;5044622;28;20057;-76
2020/12/26 02:36:15;;;;;;;4.75;3.45;;;5.30;82.10;;;;;;5039723;28;20041;-76
2020/12/26 02:38:41;;;;;;;4.55;3.85;;;5.40;82.10;;;;;;5048431;28;20600;-77
2020/12/26 02:41:07;;;;;;;5.13;3.55;;;5.40;82.10;;;;;;5037785;28;20121;-76
2020/12/26 02:43:33;;;;;;;5.72;3.35;;;5.40;82.10;;;;;;5033446;28;20033;-76
2020/12/26 02:45:59;;;;;;;4.40;3.30;;;5.40;82.10;;;;;;5046605;28;20525;-76
2020/12/26 02:48:26;;;;;;;4.75;3.42;;;5.40;82.10;;;;;;5047490;28;20087;-76
2020/12/26 02:50:52;;;;;;;4.70;3.45;;;5.40;82.10;;;;;;5049194;28;20029;-76
2020/12/26 02:53:18;;;;;;;5.07;3.38;;;5.40;82.10;;;;;;5025963;28;20030;-76
2020/12/26 02:55:43;;;;;;;5.32;3.30;;;5.40;82.10;;;;;;5041451;28;20429;-77
2020/12/26 02:58:09;;;;;;;4.18;3.30;;;5.40;82.10;;;;;;5041759;28;20036;-77
2020/12/26 03:00:35;;;;;;;5.00;3.42;;;5.40;82.10;;;;;;5049197;28;20406;-76
2020/12/26 03:03:01;;;;;;;4.65;3.53;;;5.40;82.10;;;;;;5014237;28;20394;-77
2020/12/26 03:05:26;;;;;;;4.07;3.15;;;5.40;82.10;;;;;;5038190;28;20112;-77
2020/12/26 03:07:52;;;;;;;4.78;3.70;;;5.40;82.10;;;;;;5029447;28;20495;-78
2020/12/26 03:10:18;;;;;;;5.60;3.13;;;5.40;82.10;;;;;;5018797;28;20497;-77
2020/12/26 03:12:44;;;;;;;4.35;3.40;;;5.40;82.10;;;;;;5024035;28;20201;-76
2020/12/26 03:15:10;;;;;;;6.03;3.72;;;5.40;82.10;;;;;;5027254;28;20120;-77
2020/12/26 03:17:36;;;;;;;4.93;3.45;;;5.40;82.10;;;;;;5028664;28;20108;-77
2020/12/26 03:20:03;;;;;;;5.03;3.78;;;5.40;82.10;;;;;;5040240;28;20033;-76
2020/12/26 03:22:29;;;;;;;5.82;3.60;;;5.40;82.20;;;;;;5030002;28;20033;-78
2020/12/26 03:24:55;;;;;;;5.00;3.42;;;5.50;82.10;;;;;;5043085;28;20366;-76
2020/12/26 03:27:22;;;;;;;5.65;3.50;;;5.50;82.10;;;;;;5049921;28;20025;-76
2020/12/26 03:29:48;;;;;;;4.65;3.50;;;5.50;82.20;;;;;;5032366;28;20022;-77
2020/12/26 03:32:14;;;;;;;4.30;3.38;;;5.50;82.20;;;;;;5032663;28;20025;-76
2020/12/26 03:34:40;;;;;;;5.15;3.78;;;5.50;82.20;;;;;;5040308;28;20038;-76
2020/12/26 03:37:06;;;;;;;4.60;3.58;;;5.50;82.20;;;;;;5035664;28;20470;-76
2020/12/26 03:39:35;;;;;;;5.00;3.72;;;5.50;82.20;;;;;;5028585;28;20068;-76
2020/12/26 03:42:05;;;;;;;4.60;3.28;;;5.50;82.20;;;;;;5032185;28;20048;-78
2020/12/26 03:44:31;;;;;;;4.65;3.38;;;5.50;82.20;;;;;;5014332;28;20542;-78
2020/12/26 03:46:58;;;;;;;5.03;3.28;;;5.50;82.20;;;;;;5030323;28;20038;-79
2020/12/26 03:49:24;;;;;;;4.57;3.40;;;5.50;82.20;;;;;;5032098;28;20068;-76
2020/12/26 03:51:51;;;;;;;5.20;3.60;;;5.50;82.20;;;;;;5033987;28;20489;-77
2020/12/26 03:54:17;;;;;;;4.95;3.65;;;5.50;82.20;;;;;;5030093;28;20378;-77
2020/12/26 03:56:43;;;;;;;5.28;3.63;;;5.50;82.20;;;;;;5051447;28;20120;-77
2020/12/26 03:59:10;;;;;;;4.10;3.30;;;5.50;82.20;;;;;;5035819;28;20114;-76
2020/12/26 04:01:35;;;;;;;5.35;3.70;;;5.50;82.20;;;;;;5043866;28;20373;-76
2020/12/26 04:04:01;;;;;;;6.45;3.63;;;5.50;82.20;;;;;;5035878;28;20021;-76
2020/12/26 04:06:28;;;;;;;5.00;3.30;;;5.50;82.20;;;;;;5035460;28;20032;-76
2020/12/26 04:08:54;;;;;;;4.78;3.58;;;5.50;82.20;;;;;;5054111;28;20104;-77
2020/12/26 04:11:19;;;;;;;3.67;2.92;;;5.50;82.20;;;;;;5025291;28;20033;-76
2020/12/26 04:13:45;;;;;;;4.53;3.45;;;5.50;82.20;;;;;;5031730;28;20036;-76
2020/12/26 04:16:12;;;;;;;5.18;3.72;;;5.50;82.30;;;;;;5028126;28;20121;-78
2020/12/26 04:18:38;;;;;;;4.10;3.10;;;5.50;82.30;;;;;;5046733;28;20082;-76
2020/12/26 04:21:04;;;;;;;4.68;3.22;;;5.50;82.30;;;;;;5037413;28;20021;-76
2020/12/26 04:23:30;;;;;;;4.25;2.90;;;5.50;82.30;;;;;;5038753;28;20031;-76
2020/12/26 04:25:55;;;;;;;4.55;3.38;;;5.50;82.30;;;;;;5043738;28;20030;-78
2020/12/26 04:28:22;;;;;;;4.72;3.22;;;5.50;82.30;;;;;;5039487;28;20040;-76
2020/12/26 04:30:48;;;;;;;4.13;3.28;;;5.50;82.30;;;;;;5046663;28;20041;-76
2020/12/26 04:33:14;;;;;;;4.00;2.95;;;5.50;82.30;;;;;;5052288;28;20033;-76
2020/12/26 04:35:40;;;;;;;5.70;3.25;;;5.50;82.30;;;;;;5015290;28;20116;-76
2020/12/26 04:38:06;;;;;;;3.92;2.95;;;5.50;82.30;;;;;;5020771;28;20488;-76
2020/12/26 04:40:31;;;;;;;3.50;2.85;;;5.50;82.30;;;;;;5044563;28;20040;-77
2020/12/26 04:42:58;;;;;;;3.42;2.88;;;5.40;82.20;;;;;;5048876;28;20465;-78
2020/12/26 04:45:24;;;;;;;4.00;2.92;;;5.50;82.30;;;;;;5052736;28;20028;-79
2020/12/26 04:48:05;;;;;;;4.28;2.80;;;5.40;82.30;;;;;;5037992;28;20021;-77
2020/12/26 04:50:34;;;;;;;4.50;2.92;;;5.40;82.40;;;;;;5028073;28;20030;-77
2020/12/26 04:53:04;;;;;;;3.95;2.78;;;5.50;82.30;;;;;;5031020;28;20064;-77
2020/12/26 04:55:34;;;;;;;4.22;3.17;;;5.40;82.30;;;;;;5030620;28;20041;-78
2020/12/26 04:58:08;;;;;;;6.45;3.10;;;5.40;82.30;;;;;;5032164;28;20033;-77
2020/12/26 05:00:35;;;;;;;4.00;2.92;;;5.40;82.30;;;;;;5043039;28;20060;-76
2020/12/26 05:03:09;;;;;;;3.17;2.67;;;5.40;82.30;;;;;;5047260;28;20025;-77
2020/12/26 05:05:40;;;;;;;3.97;3.10;;;5.40;82.30;;;;;;5033822;28;20075;-76
2020/12/26 05:08:08;;;;;;;4.30;3.30;;;5.40;82.30;;;;;;5033489;28;20067;-76
2020/12/26 05:10:34;;;;;;;4.50;3.20;;;5.40;82.30;;;;;;5031546;28;20034;-76
2020/12/26 05:13:00;;;;;;;3.17;2.60;;;5.40;82.30;;;;;;5038506;28;20038;-77
2020/12/26 05:15:27;;;;;;;3.78;2.67;;;5.40;82.30;;;;;;5033474;28;20500;-78
2020/12/26 05:17:53;;;;;;;4.13;2.90;;;5.40;82.30;;;;;;5033630;28;20488;-75
2020/12/26 05:20:21;;;;;;;3.88;2.75;;;5.40;82.30;;;;;;5039300;28;20053;-76
2020/12/26 05:22:47;;;;;;;4.53;2.63;;;5.40;82.30;;;;;;5050516;28;20037;-76
2020/12/26 05:25:13;;;;;;;4.10;2.90;;;5.40;82.30;;;;;;4996556;28;20017;-76
2020/12/26 05:27:38;;;;;;;3.20;2.60;;;5.40;82.90;;;;;;5046250;28;20033;-76
2020/12/26 05:30:05;;;;;;;4.13;2.90;;;5.40;82.30;;;;;;5039512;28;20033;-76
2020/12/26 05:32:32;;;;;;;3.28;2.53;;;5.40;82.30;;;;;;5038634;28;20026;-76
2020/12/26 05:35:04;;;;;;;3.72;2.80;;;5.40;82.30;;;;;;5047831;28;20029;-76
2020/12/26 05:37:30;;;;;;;3.53;2.58;;;5.40;82.30;;;;;;5049373;28;20524;-76
2020/12/26 05:39:59;;;;;;;3.83;2.88;;;5.40;82.30;;;;;;5050530;28;20103;-76
2020/12/26 05:42:25;;;;;;;3.60;2.70;;;5.30;82.30;;;;;;5046846;28;20492;-76
2020/12/26 05:44:51;;;;;;;3.53;2.70;;;5.30;82.30;;;;;;5034216;28;20033;-77
2020/12/26 05:47:24;;;;;;;3.80;2.60;;;5.30;82.30;;;;;;5041772;28;20021;-78
2020/12/26 05:49:49;;;;;;;4.85;2.80;;;5.40;82.40;;;;;;5046582;28;20075;-76
2020/12/26 05:52:15;;;;;;;3.65;2.45;;;5.40;82.40;;;;;;5042746;28;20071;-78
2020/12/26 05:54:51;;;;;;;3.90;2.80;;;5.30;82.30;;;;;;5045130;28;20037;-77
2020/12/26 05:57:18;;;;;;;4.15;2.50;;;5.40;82.40;;;;;;5059870;28;20091;-77
2020/12/26 05:59:52;;;;;;;3.38;2.65;;;5.40;82.40;;;;;;5014151;28;20024;-76
2020/12/26 06:02:29;;;;;;;5.37;2.80;;;5.40;82.40;;;;;;5048077;28;20021;-76
2020/12/26 06:04:57;;;;;;;3.65;2.60;;;5.30;82.40;;;;;;5030080;28;20033;-77
2020/12/26 06:07:29;;;;;;;3.83;2.72;;;5.40;82.30;;;;;;5051243;28;20092;-78
2020/12/26 06:09:59;;;;;;;3.28;2.50;;;5.30;82.30;;;;;;5043842;28;20125;-76
2020/12/26 06:12:28;;;;;;;4.30;2.85;;;5.40;82.30;;;;;;5034064;28;20112;-77
2020/12/26 06:14:55;;;;;;;3.10;2.60;;;5.30;82.30;;;;;;5049835;28;20021;-76
2020/12/26 06:17:24;;;;;;;3.08;2.60;;;5.30;82.30;;;;;;5036488;28;20029;-76
2020/12/26 06:19:56;;;;;;;3.75;2.60;;;5.30;82.30;;;;;;5039407;28;20026;-77
2020/12/26 06:22:22;;;;;;;4.30;2.65;;;5.30;82.30;;;;;;5042138;28;20037;-76
2020/12/26 06:24:48;;;;;;;3.80;2.50;;;5.30;82.30;;;;;;5048277;28;20025;-76
2020/12/26 06:27:15;;;;;;;3.22;2.60;;;5.30;82.30;;;;;;5046645;28;20473;-76
2020/12/26 06:29:43;;;;;;;3.47;2.40;;;5.30;82.30;;;;;;5048795;28;20434;-76
2020/12/26 06:32:10;;;;;;;3.50;2.67;;;5.30;82.30;;;;;;5030861;28;20057;-80
2020/12/26 06:34:39;;;;;;;4.15;3.00;;;5.30;82.30;;;;;;5043432;28;20040;-76
2020/12/26 06:37:06;;;;;;;2.95;2.55;;;5.30;82.30;;;;;;5037611;28;20035;-76
2020/12/26 06:39:33;;;;;;;3.88;3.00;;;5.30;82.30;;;;;;5024547;28;20132;-76
2020/12/26 06:42:13;;;;;;;3.70;2.88;;;5.40;82.30;;;;;;5032756;28;20496;-76
2020/12/26 06:44:40;;;;;;;3.75;2.90;;;5.40;82.40;;;;;;5037373;28;20086;-77
2020/12/26 06:47:06;;;;;;;4.97;3.00;;;5.30;82.20;;;;;;5050141;28;20087;-76
2020/12/26 06:49:32;;;;;;;4.03;2.92;;;5.40;82.30;;;;;;5032592;28;20086;-76
2020/12/26 06:51:58;;;;;;;4.05;3.00;;;5.40;82.40;;;;;;5033880;28;20583;-76
2020/12/26 06:54:38;;;;;;;4.32;3.30;;;5.40;82.40;;;;;;5039217;28;20445;-76
2020/12/26 06:57:04;;;;;;;4.03;3.13;;;5.30;82.40;;;;;;5038819;28;20385;-77
2020/12/26 06:59:34;;;;;;;4.60;3.13;;;5.40;82.30;;;;;;5003300;28;20028;-76
2020/12/26 07:02:08;;;;;;;4.80;3.38;;;5.40;82.30;;;;;;5028859;28;20654;-76
2020/12/26 07:04:41;;;;;;;4.72;3.40;;;5.30;82.30;;;;;;5033306;28;20033;-76
2020/12/26 07:07:10;;;;;;;4.82;3.53;;;5.40;82.30;;;;;;5016776;28;20075;-76
2020/12/26 07:09:36;;;;;;;6.35;3.50;;;5.40;82.30;;;;;;5035530;28;20649;-77
2020/12/26 07:12:05;;;;;;;4.53;3.22;;;5.40;82.30;;;;;;5046573;28;20242;-77
2020/12/26 07:14:39;;;;;;;5.18;3.47;;;5.40;82.30;;;;;;5031771;28;20063;-76
2020/12/26 07:17:14;;;;;;;5.70;4.00;;;5.30;82.30;;;;;;5047374;28;20060;-78
2020/12/26 07:19:43;;;;;;;4.65;3.47;;;5.40;82.40;;;;;;5049824;28;20112;-76
2020/12/26 07:22:16;;;;;;;4.65;3.42;;;5.40;82.30;;;;;;5048972;28;20096;-76
2020/12/26 07:24:44;;;;;;;4.60;3.35;;;5.40;82.30;;;;;;5031854;28;20071;-77
2020/12/26 07:27:22;;;;;;;5.60;3.85;;;5.40;82.30;;;;;;5046369;28;20033;-76
2020/12/26 07:29:59;;;;;;;5.30;3.92;;;5.40;82.40;;;;;;5048397;28;20028;-76
2020/12/26 07:32:55;;;;;;;6.13;3.85;;;5.40;82.30;;;;;;5041536;28;20036;-77
2020/12/26 07:35:23;;;;;;;5.38;3.95;;;5.40;82.40;;;;;;5025750;28;20474;-76
2020/12/26 07:37:55;;;;;;;5.13;4.10;;;5.40;82.20;;;;;;5046889;28;20033;-77
2020/12/26 07:40:24;;;;;;;5.90;4.20;;;5.40;82.30;;;;;;5046021;28;20024;-76
2020/12/26 07:42:50;;;;;;;4.82;3.65;;;5.40;82.30;;;;;;5032959;28;20032;-76
2020/12/26 07:45:24;;;;;;;5.32;4.15;;;5.40;82.30;;;;;;5044193;28;20028;-76
2020/12/26 07:47:55;;;;;;;5.87;4.33;;;5.40;82.30;;;;;;5047602;28;20222;-77
2020/12/26 07:50:23;;;;;;;5.70;4.13;;;5.40;82.30;;;;;;5050264;28;20032;-76
2020/12/26 07:52:50;;;;;;;6.00;4.32;;;5.40;82.30;;;;;;5049533;28;20462;-76
2020/12/26 07:55:17;;;;;;;5.55;4.28;;;5.40;82.30;;;;;;5043068;28;20068;-75
2020/12/26 07:57:42;;;;;;;5.78;3.92;;;5.40;82.30;;;;;;5020738;28;20030;-76
2020/12/26 08:00:21;;;;;;;5.85;4.35;;;5.40;82.30;;;;;;5032432;28;20410;-76
2020/12/26 08:02:51;;;;;;;6.35;4.85;;;5.40;82.40;;;;;;5031453;28;20029;-77
2020/12/26 08:05:22;;;;;;;4.85;4.10;;;5.40;82.30;;;;;;5045299;28;20039;-76
2020/12/26 08:07:47;;;;;;;5.07;4.10;;;5.40;82.30;;;;;;5036358;28;20029;-75
2020/12/26 08:10:15;;;;;;;5.53;4.30;;;5.40;82.30;;;;;;5043939;28;20545;-76
2020/12/26 08:12:47;;;;;;;5.97;4.20;;;5.50;82.30;;;;;;5044552;28;20044;-77
2020/12/26 08:15:19;;;;;;;5.90;4.20;;;5.40;82.30;;;;;;5047305;28;20415;-76
2020/12/26 08:17:46;;;;;;;5.28;4.03;;;5.40;82.30;;;;;;5040313;28;20029;-76
2020/12/26 08:20:14;;;;;;;5.68;4.35;;;5.50;82.30;;;;;;5042751;28;20053;-76
2020/12/26 08:22:43;;;;;;;5.20;4.28;;;5.50;82.40;;;;;;5048937;28;20033;-77
2020/12/26 08:25:10;;;;;;;6.53;4.30;;;5.50;82.30;;;;;;5031789;28;20033;-77
2020/12/26 08:27:40;;;;;;;5.40;4.10;;;5.50;82.40;;;;;;5031051;28;20033;-77
2020/12/26 08:30:10;;;;;;;4.88;4.00;;;5.50;83.00;;;;;;5040322;28;20517;-77
2020/12/26 08:33:06;;;;;;;6.15;4.43;;;5.50;82.40;;;;;;5033399;28;20025;-75
2020/12/26 08:35:33;;;;;;;6.10;4.20;;;5.50;82.40;;;;;;5042485;28;20133;-77
2020/12/26 08:38:08;;;;;;;5.68;4.18;;;5.50;82.30;;;;;;5051210;28;20084;-76
2020/12/26 08:40:39;;;;;;;4.97;3.97;;;5.50;82.30;;;;;;5039277;28;20045;-77
2020/12/26 08:43:11;;;;;;;5.45;4.07;;;5.50;82.30;;;;;;5043864;28;20029;-76
2020/12/26 08:45:37;;;;;;;6.63;4.20;;;5.50;82.30;;;;;;5032938;28;20034;-76
2020/12/26 08:48:14;;;;;;;4.90;3.88;;;5.50;82.30;;;;;;5018648;28;20369;-76
2020/12/26 08:50:40;;;;;;;5.25;3.88;;;5.50;82.40;;;;;;5045248;28;20017;-76
2020/12/26 08:53:10;;;;;;;5.75;4.10;;;5.50;82.30;;;;;;5047417;28;20074;-77
2020/12/26 08:55:47;;;;;;;4.95;3.65;;;5.50;82.30;;;;;;5045268;28;20051;-77
2020/12/26 08:58:25;;;;;;;4.95;4.13;;;5.50;82.40;;;;;;5048147;28;20029;-76
2020/12/26 09:00:53;;;;;;;5.47;4.10;;;5.50;82.30;;;;;;5038881;28;20125;-77
2020/12/26 09:03:21;;;;;;;6.03;3.97;;;5.50;82.30;;;;;;5038396;28;20446;-77
2020/12/26 09:05:47;;;;;;;5.30;3.83;;;5.60;82.30;;;;;;5047151;28;20119;-76
2020/12/26 09:08:13;;;;;;;5.85;3.97;;;5.60;82.30;;;;;;5051843;28;20112;-77
2020/12/26 09:10:39;;;;;;;4.75;3.70;;;5.50;82.30;;;;;;5031545;28;20041;-77
2020/12/26 09:13:13;;;;;;;5.47;4.03;;;5.60;82.30;;;;;;5035171;28;20423;-76
2020/12/26 09:15:56;;;;;;;5.60;3.90;;;5.60;82.40;;;;;;5017851;28;20536;-76
2020/12/26 09:18:24;;;;;;;5.05;3.55;;;5.60;82.40;;;;;;5049687;28;20049;-77
2020/12/26 09:20:58;;;;;;;5.82;3.67;;;5.60;82.30;;;;;;5030121;28;20454;-77
2020/12/26 09:23:29;;;;;;;5.30;4.13;;;5.60;82.30;;;;;;5033722;28;20021;-76
2020/12/26 09:26:13;;;;;;;5.07;3.78;;;5.60;82.30;;;;;;5045218;28;20525;-78
2020/12/26 09:28:53;;;;;;;4.60;3.60;;;5.60;82.40;;;;;;5050891;28;20025;-77
2020/12/26 09:31:36;;;;;;;5.00;3.90;;;5.60;82.30;;;;;;5039410;28;20036;-75
2020/12/26 09:34:21;;;;;;;4.38;3.40;;;5.60;82.30;;;;;;5037690;28;20040;-75
2020/12/26 09:36:48;;;;;;;5.93;3.70;;;5.60;82.30;;;;;;5044310;28;20493;-74
2020/12/26 09:39:14;;;;;;;5.43;3.35;;;5.70;82.30;;;;;;5043524;28;20040;-78
2020/12/26 09:41:49;;;;;;;6.28;3.90;;;5.70;82.30;;;;;;5029718;28;20108;-75
2020/12/26 09:44:15;;;;;;;;;;;5.70;82.40;;;;;;5047424;28;20436;-78
2020/12/26 09:46:42;;;;;;;5.38;3.67;;;5.70;82.30;;;;;;5046755;28;19909;-75
2020/12/26 09:49:09;;;;;;;4.97;3.05;;;5.70;82.10;;;;;;5029146;28;20111;-76
2020/12/26 09:51:35;;;;;;;4.88;3.78;;;5.70;82.20;;;;;;5030521;28;20108;-75
2020/12/26 09:54:01;;;;;;;5.05;3.53;;;5.70;82.20;;;;;;5049724;28;20060;-74
2020/12/26 09:56:27;;;;;;;4.80;3.40;;;5.70;82.30;;;;;;5030118;28;20535;-74
2020/12/26 09:58:53;;;;;;;4.30;3.40;;;5.70;82.30;;;;;;5011395;28;20032;-74
2020/12/26 10:01:20;;;;;;;5.07;3.58;;;5.70;82.20;;;;;;5041485;28;20019;-76
2020/12/26 10:03:47;;;;;;;5.32;3.60;;;5.80;82.30;;;;;;5037301;28;20057;-75
2020/12/26 10:06:15;;;;;;;5.90;3.53;;;5.80;82.40;;;;;;5043023;28;20028;-79
2020/12/26 10:08:42;;;;;;;4.38;3.45;;;5.80;82.30;;;;;;5047298;28;20032;-75
2020/12/26 10:11:18;;;;;;;4.50;3.10;;;5.80;82.30;;;;;;5042169;28;20037;-75
2020/12/26 10:13:45;;;;;;;4.75;3.40;;;5.80;82.30;;;;;;5060469;28;20094;-76
2020/12/26 10:16:11;;;;;;;4.93;3.28;;;5.90;82.30;;;;;;5040327;28;20112;-77
2020/12/26 10:18:38;;;;;;;4.32;3.05;;;5.90;82.30;;;;;;5041809;28;20025;-75
2020/12/26 10:21:04;;;;;;;4.60;3.47;;;5.90;82.30;;;;;;5039512;28;20064;-74
2020/12/26 10:23:30;;;;;;;4.43;3.15;;;5.90;82.30;;;;;;5044236;28;20036;-74
2020/12/26 10:26:06;;;;;;;3.75;3.00;;;5.90;82.30;;;;;;5048056;28;20035;-75
2020/12/26 10:28:32;;;;;;;4.60;3.40;;;5.90;82.30;;;;;;5031292;28;20442;-76
2020/12/26 10:30:59;;;;;;;4.50;3.13;;;5.90;82.30;;;;;;5041533;28;20021;-76
2020/12/26 10:33:25;;;;;;;3.85;2.80;;;5.90;82.20;;;;;;5023968;28;20034;-76
2020/12/26 10:35:52;;;;;;;4.47;3.50;;;6.00;82.30;;;;;;5029852;28;20069;-76
2020/12/26 10:38:18;;;;;;;5.40;3.20;;;6.00;82.30;;;;;;5046153;28;20060;-77
2020/12/26 10:40:43;;;;;;;5.28;3.38;;;6.00;82.30;;;;;;5048322;28;20135;-77
2020/12/26 10:43:09;;;;;;;4.20;2.75;;;6.00;82.30;;;;;;5031942;28;20025;-76
2020/12/26 10:45:35;;;;;;;4.50;2.88;;;6.00;82.30;;;;;;5027073;28;20108;-78
2020/12/26 10:48:00;;;;;;;4.20;3.20;;;6.00;82.30;;;;;;5038397;28;20040;-78
2020/12/26 10:50:26;;;;;;;4.03;2.92;;;6.00;82.30;;;;;;5027978;28;20040;-76
2020/12/26 10:52:52;;;;;;;5.05;3.38;;;6.00;82.30;;;;;;5037526;28;20033;-76
2020/12/26 10:55:18;;;;;;;4.57;3.20;;;6.10;82.30;;;;;;5048138;28;20515;-76
2020/12/26 10:57:44;;;;;;;3.92;2.90;;;6.10;82.30;;;;;;5032296;28;20029;-76
2020/12/26 11:00:13;;;;;;;3.70;2.80;;;6.10;82.30;;;;;;5047424;28;20257;-75
2020/12/26 11:02:39;;;;;;;3.70;2.95;;;6.10;82.30;;;;;;5046477;28;20025;-76
2020/12/26 11:05:06;;;;;;;3.60;2.40;;;6.10;82.30;;;;;;5047259;28;20048;-75
2020/12/26 11:07:32;;;;;;;3.30;2.63;;;6.10;82.30;;;;;;5029574;28;20504;-75
2020/12/26 11:09:58;;;;;;;3.70;2.80;;;6.10;82.30;;;;;;5047838;28;20412;-76
2020/12/26 11:12:24;;;;;;;5.05;3.03;;;6.10;82.30;;;;;;5047816;28;20055;-76
2020/12/26 11:14:50;;;;;;;4.35;2.85;;;6.10;82.40;;;;;;5030507;28;20478;-76
2020/12/26 11:17:16;;;;;;;3.40;2.50;;;6.20;82.40;;;;;;5044076;28;20371;-76
2020/12/26 11:19:41;;;;;;;3.47;2.75;;;6.20;82.40;;;;;;5012798;28;20033;-76
2020/12/26 11:22:07;;;;;;;3.35;2.58;;;6.20;82.30;;;;;;5046660;28;20108;-75
2020/12/26 11:24:33;;;;;;;4.07;2.78;;;6.20;82.30;;;;;;5037432;28;20038;-75
2020/12/26 11:26:59;;;;;;;3.92;2.80;;;6.20;82.30;;;;;;5037565;28;20053;-75
2020/12/26 11:29:25;;;;;;;3.60;2.70;;;6.20;82.30;;;;;;5039114;28;20120;-75
2020/12/26 11:31:51;;;;;;;3.42;2.58;;;6.20;82.30;;;;;;5026355;28;20757;-75
2020/12/26 11:34:16;;;;;;;4.70;2.70;;;6.30;82.40;;;;;;5032874;28;20037;-76
2020/12/26 11:36:42;;;;;;;3.10;2.35;;;6.30;82.40;;;;;;5011068;28;20489;-76
2020/12/26 11:39:10;;;;;;;4.18;3.00;;;6.30;82.30;;;;;;5046281;28;20063;-76
2020/12/26 11:41:36;;;;;;;3.45;2.40;;;6.30;82.30;;;;;;5048076;28;20036;-78
2020/12/26 11:44:02;;;;;;;2.67;2.17;;;6.30;82.90;;;;;;5047190;28;20033;-78
2020/12/26 11:46:29;;;;;;;3.88;2.80;;;6.30;82.40;;;;;;5045746;28;20074;-77
2020/12/26 11:48:55;;;;;;;3.60;2.30;;;6.40;82.40;;;;;;5030349;28;20037;-75
2020/12/26 11:51:21;;;;;;;3.30;2.67;;;6.30;82.40;;;;;;5030801;28;20485;-77
2020/12/26 11:53:47;;;;;;;3.25;2.40;;;6.40;82.40;;;;;;5031065;28;20147;-76
2020/12/26 11:56:14;;;;;;;2.95;2.20;;;6.40;82.40;;;;;;5042913;28;20477;-76
2020/12/26 11:58:41;;;;;;;3.75;2.40;;;6.40;82.40;;;;;;5027082;28;20052;-82
2020/12/26 12:01:08;;;;;;;3.05;2.33;;;6.40;82.40;;;;;;5041925;28;20082;-76
2020/12/26 12:03:34;;;;;;;2.88;2.15;;;6.40;82.40;;;;;;5037776;28;20117;-75
2020/12/26 12:06:00;;;;;;;2.97;2.40;;;6.40;82.40;;;;;;5029804;28;20029;-77
2020/12/26 12:08:26;;;;;;;3.65;2.60;;;6.40;82.40;;;;;;5025052;28;20030;-78
2020/12/26 12:10:52;;;;;;;2.70;2.20;;;6.40;82.40;;;;;;5052128;28;20032;-79
2020/12/26 12:13:18;;;;;;;3.40;2.00;;;6.40;82.40;;;;;;5030253;28;20017;-81
2020/12/26 12:15:44;;;;;;;2.60;2.20;;;6.40;82.40;;;;;;5039408;28;20037;-78
2020/12/26 12:18:10;;;;;;;3.05;2.35;;;6.50;82.40;;;;;;5052181;28;20034;-77
2020/12/26 12:20:36;;;;;;;3.35;2.30;;;6.50;82.40;;;;;;5066445;28;20025;-76
2020/12/26 12:23:02;;;;;;;3.47;2.22;;;6.50;82.40;;;;;;5047028;28;20021;-77
2020/12/26 12:25:29;;;;;;;4.43;2.10;;;6.50;82.40;;;;;;5037777;28;20033;-78
2020/12/26 12:27:55;;;;;;;2.78;2.00;;;6.50;82.40;;;;;;5038169;28;20381;-76
2020/12/26 12:30:25;;;;;;;2.90;2.40;;;6.50;82.40;;;;;;5022720;28;20051;-76
2020/12/26 12:32:52;;;;;;;3.30;2.17;;;6.60;82.50;;;;;;5039507;28;20033;-77
2020/12/26 12:35:18;;;;;;;2.55;2.20;;;6.60;82.40;;;;;;5067594;28;20025;-75
2020/12/26 12:37:48;;;;;;;2.22;2.03;;;6.60;82.40;;;;;;5036445;28;20032;-77
2020/12/26 12:40:14;;;;;;;3.03;2.25;;;6.50;82.40;;;;;;5042548;28;20108;-76
2020/12/26 12:42:40;;;;;;;2.88;2.30;;;6.60;82.40;;;;;;5016499;28;20513;-77
2020/12/26 12:45:06;;;;;;;3.38;2.13;;;6.60;82.40;;;;;;5047043;28;20397;-76
2020/12/26 12:47:32;;;;;;;3.45;2.38;;;6.60;82.40;;;;;;5052506;28;20108;-76
2020/12/26 12:49:57;;;;;;;3.13;2.00;;;6.60;82.40;;;;;;5052264;28;20132;-76
2020/12/26 12:52:24;;;;;;;2.72;2.30;;;6.60;82.40;;;;;;5035824;28;20021;-76
2020/12/26 12:54:49;;;;;;;3.83;2.17;;;6.70;82.50;;;;;;5047714;28;20021;-76
2020/12/26 12:57:15;;;;;;;3.15;2.00;;;6.70;82.40;;;;;;5033015;28;20044;-76
2020/12/26 12:59:42;;;;;;;3.25;1.92;;;6.70;82.40;;;;;;5034439;28;20022;-77
2020/12/26 13:02:09;;;;;;;3.63;2.00;;;6.70;82.40;;;;;;5041740;28;20026;-76